createdAt,value
2023-05-12T00:02:06.314Z,98540.13
2023-05-12T00:05:09.772Z,98535.03
2023-05-12T00:08:12.508Z,98542.94
2023-05-12T00:11:15.483Z,98529.19
2023-05-12T00:14:18.378Z,98530.94
2023-05-12T00:17:21.413Z,98533.56
2023-05-12T00:20:24.004Z,98526.88
2023-05-12T00:23:26.817Z,98518.03
2023-05-12T00:26:29.303Z,98524.34
2023-05-12T00:29:33.439Z,98507.28
2023-05-12T00:32:35.929Z,98525.50
2023-05-12T00:35:38.696Z,98518.34
2023-05-12T00:38:41.476Z,98515.97
2023-05-12T00:41:44.567Z,98515.06
2023-05-12T00:44:47.877Z,98516.16
2023-05-12T00:47:51.979Z,98514.44
2023-05-12T00:50:55.733Z,98510.41
2023-05-12T00:53:59.181Z,98492.25
2023-05-12T00:57:02.122Z,98505.63
2023-05-12T01:00:07.124Z,98486.34
2023-05-12T01:03:10.187Z,98510.19
2023-05-12T01:06:17.977Z,98495.69
2023-05-12T01:09:20.962Z,98498.53
2023-05-12T01:12:24.967Z,98507.66
2023-05-12T01:15:28.923Z,98499.75
2023-05-12T01:18:33.711Z,98500.84
2023-05-12T01:21:37.105Z,98502.75
2023-05-12T01:24:58.431Z,98504.41
2023-05-12T01:28:02.694Z,98509.22
2023-05-12T01:31:07.029Z,98509.84
2023-05-12T01:34:16.230Z,98517.47
2023-05-12T01:37:19.774Z,98505.66
2023-05-12T01:40:22.771Z,98506.47
2023-05-12T01:43:25.834Z,98510.94
2023-05-12T01:46:28.806Z,98510.94
2023-05-12T01:49:32.865Z,98495.84
2023-05-12T01:52:35.912Z,98504.63
2023-05-12T01:55:39.000Z,98507.47
2023-05-12T01:58:41.798Z,98510.19
2023-05-12T02:01:44.999Z,98506.91
2023-05-12T02:04:49.425Z,98515.97
2023-05-12T02:07:52.277Z,98510.94
2023-05-12T02:11:07.880Z,98518.22
2023-05-12T02:14:10.806Z,98510.06
2023-05-12T02:17:14.249Z,98512.59
2023-05-12T02:20:17.551Z,98515.25
2023-05-12T02:23:20.835Z,98517.13
2023-05-12T02:26:23.447Z,98523.81
2023-05-12T02:29:26.630Z,98520.91
2023-05-12T02:32:29.784Z,98524.53
2023-05-12T02:35:32.636Z,98526.53
2023-05-12T02:38:35.387Z,98525.56
2023-05-12T02:41:38.714Z,98508.19
2023-05-12T02:44:41.364Z,98524.06
2023-05-12T02:47:44.376Z,98532.09
2023-05-12T02:50:47.052Z,98523.22
2023-05-12T02:53:50.269Z,98519.38
2023-05-12T02:56:53.614Z,98521.19
2023-05-12T02:59:56.385Z,98524.06
2023-05-12T03:02:59.375Z,98527.72
2023-05-12T03:06:04.666Z,98533.06
2023-05-12T03:09:07.381Z,98534.84
2023-05-12T03:12:10.392Z,98542.00
2023-05-12T03:15:13.197Z,98543.09
2023-05-12T03:18:16.201Z,98524.75
2023-05-12T03:21:18.779Z,98548.66
2023-05-12T03:24:21.563Z,98541.59
2023-05-12T03:27:24.207Z,98539.03
2023-05-12T03:30:27.029Z,98537.34
2023-05-12T03:33:30.356Z,98530.06
2023-05-12T03:36:33.819Z,98533.00
2023-05-12T03:39:36.466Z,98541.03
2023-05-12T03:42:39.600Z,98543.66
2023-05-12T03:45:44.102Z,98539.22
2023-05-12T03:48:47.335Z,98536.78
2023-05-12T03:51:50.204Z,98535.16
2023-05-12T03:54:54.389Z,98539.69
2023-05-12T03:57:57.000Z,98537.75
2023-05-12T04:01:01.718Z,98543.06
2023-05-12T04:04:04.976Z,98553.84
2023-05-12T04:07:07.746Z,98555.50
2023-05-12T04:10:10.754Z,98557.19
2023-05-12T04:13:13.321Z,98552.69
2023-05-12T04:16:16.541Z,98555.50
2023-05-12T04:19:19.064Z,98554.69
2023-05-12T04:22:23.436Z,98562.72
2023-05-12T04:25:27.568Z,98568.97
2023-05-12T04:28:30.453Z,98557.25
2023-05-12T04:31:33.134Z,98567.09
2023-05-12T04:34:36.753Z,98573.16
2023-05-12T04:37:40.037Z,98567.91
2023-05-12T04:40:43.346Z,98564.28
2023-05-12T04:46:56.081Z,98565.03
2023-05-12T04:49:58.665Z,98562.88
2023-05-12T04:53:01.490Z,98569.19
2023-05-12T04:56:04.180Z,98568.13
2023-05-12T04:59:07.111Z,98570.66
2023-05-12T05:02:10.060Z,98573.78
2023-05-12T05:05:12.818Z,98573.31
2023-05-12T05:08:15.635Z,98575.34
2023-05-12T05:11:18.840Z,98569.38
2023-05-12T05:14:22.054Z,98577.53
2023-05-12T05:17:25.185Z,98566.59
2023-05-12T05:20:29.343Z,98567.72
2023-05-12T05:23:32.563Z,98572.88
2023-05-12T05:26:35.927Z,98574.69
2023-05-12T05:29:39.588Z,98582.00
2023-05-12T05:32:42.991Z,98580.16
2023-05-12T05:35:46.924Z,98568.59
2023-05-12T05:38:49.866Z,98566.16
2023-05-12T05:41:52.838Z,98575.66
2023-05-12T05:44:56.401Z,98570.50
2023-05-12T05:47:59.811Z,98574.94
2023-05-12T05:51:03.229Z,98570.78
2023-05-12T05:54:06.291Z,98579.00
2023-05-12T05:57:08.956Z,98579.78
2023-05-12T06:00:14.367Z,98574.63
2023-05-12T06:03:19.306Z,98582.50
2023-05-12T06:06:22.265Z,98584.63
2023-05-12T06:09:25.189Z,98590.56
2023-05-12T06:12:28.002Z,98583.63
2023-05-12T06:15:30.828Z,98584.28
2023-05-12T06:18:37.764Z,98589.75
2023-05-12T06:21:40.999Z,98591.00
2023-05-12T06:24:43.761Z,98601.13
2023-05-12T06:27:46.788Z,98598.50
2023-05-12T06:30:49.328Z,98598.22
2023-05-12T06:33:53.143Z,98603.44
2023-05-12T06:36:56.060Z,98600.06
2023-05-12T06:39:59.652Z,98601.22
2023-05-12T06:43:02.903Z,98604.50
2023-05-12T06:46:06.950Z,98610.69
2023-05-12T06:49:10.624Z,98600.75
2023-05-12T06:52:13.441Z,98601.94
2023-05-12T06:55:20.158Z,98601.59
2023-05-12T06:58:23.312Z,98589.13
2023-05-12T07:01:25.900Z,98608.53
2023-05-12T07:04:29.731Z,98608.59
2023-05-12T07:07:32.225Z,98605.34
2023-05-12T07:10:35.348Z,98591.22
2023-05-12T07:13:38.438Z,98601.31
2023-05-12T07:16:41.171Z,98581.97
2023-05-12T07:19:43.840Z,98604.06
2023-05-12T07:22:46.634Z,98602.78
2023-05-12T07:25:49.314Z,98605.31
2023-05-12T07:28:52.872Z,98603.53
2023-05-12T07:31:55.687Z,98604.69
2023-05-12T07:34:58.720Z,98613.34
2023-05-12T07:38:03.233Z,98618.19
2023-05-12T07:41:06.093Z,98623.09
2023-05-12T07:44:08.893Z,98617.69
2023-05-12T07:47:11.704Z,98611.31
2023-05-12T07:50:14.222Z,98619.44
2023-05-12T07:53:16.989Z,98620.63
2023-05-12T07:56:19.613Z,98622.13
2023-05-12T07:59:22.397Z,98622.19
2023-05-12T08:02:24.998Z,98624.13
2023-05-12T08:05:27.896Z,98630.53
2023-05-12T08:08:30.720Z,98627.94
2023-05-12T08:11:33.487Z,98635.84
2023-05-12T08:14:36.307Z,98629.44
2023-05-12T08:17:39.254Z,98634.03
2023-05-12T08:20:42.104Z,98635.03
2023-05-12T08:23:45.034Z,98623.13
2023-05-12T08:26:47.576Z,98633.69
2023-05-12T08:29:50.533Z,98651.81
2023-05-12T08:32:54.508Z,98647.00
2023-05-12T08:35:57.429Z,98651.50
2023-05-12T08:39:00.117Z,98658.00
2023-05-12T08:42:30.155Z,98659.50
2023-05-12T08:45:34.069Z,98656.69
2023-05-12T08:48:38.826Z,98657.88
2023-05-12T08:51:46.653Z,98663.31
2023-05-12T08:54:56.436Z,98656.09
2023-05-12T08:58:00.307Z,98667.25
2023-05-12T09:01:07.457Z,98666.25
2023-05-12T09:04:10.394Z,98665.38
2023-05-12T09:07:13.448Z,98668.34
2023-05-12T09:10:32.926Z,98669.38
2023-05-12T09:14:02.712Z,98673.13
2023-05-12T09:17:05.646Z,98686.62
2023-05-12T09:20:20.522Z,98675.75
2023-05-12T09:23:26.502Z,98680.38
2023-05-12T09:26:29.456Z,98674.87
2023-05-12T09:29:42.484Z,98675.81
2023-05-12T09:32:51.108Z,98683.88
2023-05-12T09:35:53.683Z,98684.13
2023-05-12T09:39:00.870Z,98685.84
2023-05-12T09:42:03.622Z,98686.91
2023-05-12T09:45:09.501Z,98684.88
2023-05-12T09:48:13.029Z,98685.66
2023-05-12T09:51:19.078Z,98687.91
2023-05-12T09:54:28.539Z,98685.03
2023-05-12T09:57:31.969Z,98683.22
2023-05-12T10:00:52.517Z,98684.16
2023-05-12T10:03:59.178Z,98687.72
2023-05-12T10:07:01.760Z,98691.44
2023-05-12T10:10:07.270Z,98690.22
2023-05-12T10:13:14.408Z,98687.72
2023-05-12T10:16:17.569Z,98688.84
2023-05-12T10:19:20.313Z,98688.94
2023-05-12T10:22:23.597Z,98695.19
2023-05-12T10:25:26.080Z,98694.06
2023-05-12T10:28:29.614Z,98698.69
2023-05-12T10:31:32.312Z,98693.00
2023-05-12T10:34:37.165Z,98694.22
2023-05-12T10:37:40.030Z,98689.50
2023-05-12T10:41:09.138Z,98693.69
2023-05-12T10:44:12.307Z,98697.34
2023-05-12T10:47:15.257Z,98698.59
2023-05-12T10:50:27.841Z,98706.22
2023-05-12T10:53:47.656Z,98709.62
2023-05-12T10:56:52.457Z,98713.63
2023-05-12T11:00:00.679Z,98710.00
2023-05-12T11:03:13.166Z,98713.63
2023-05-12T11:06:19.482Z,98721.75
2023-05-12T11:09:22.406Z,98725.75
2023-05-12T11:12:27.566Z,98721.72
2023-05-12T11:15:31.354Z,98725.47
2023-05-12T11:18:34.199Z,98724.59
2023-05-12T11:21:37.186Z,98725.72
2023-05-12T11:24:41.301Z,98724.12
2023-05-12T11:27:53.299Z,98722.81
2023-05-12T11:30:56.240Z,98715.72
2023-05-12T11:34:12.480Z,98717.38
2023-05-12T11:37:16.379Z,98711.28
2023-05-12T11:40:21.073Z,98701.38
2023-05-12T11:43:23.972Z,98699.03
2023-05-12T11:46:30.329Z,98690.25
2023-05-12T11:49:34.742Z,98700.09
2023-05-12T11:52:37.185Z,98702.91
2023-05-12T11:55:51.216Z,98710.16
2023-05-12T11:58:58.257Z,98717.62
2023-05-12T12:02:04.021Z,98706.66
2023-05-12T12:05:17.654Z,98708.34
2023-05-12T12:08:20.368Z,98702.19
2023-05-12T12:11:26.876Z,98707.84
2023-05-12T12:14:31.105Z,98533.78
2023-05-12T12:17:33.984Z,98718.41
2023-05-12T12:20:36.564Z,98717.09
2023-05-12T12:23:50.369Z,98715.56
2023-05-12T12:26:53.619Z,98698.84
2023-05-12T12:29:56.544Z,98703.16
2023-05-12T12:32:59.293Z,98718.03
2023-05-12T12:36:02.205Z,98718.59
2023-05-12T12:39:04.803Z,98719.66
2023-05-12T12:42:07.787Z,98719.63
2023-05-12T12:45:10.814Z,98718.91
2023-05-12T12:48:13.741Z,98698.75
2023-05-12T12:51:16.381Z,98724.22
2023-05-12T12:54:19.221Z,98723.19
2023-05-12T12:57:22.896Z,98725.28
2023-05-12T13:00:25.704Z,98722.59
2023-05-12T13:03:28.415Z,98719.91
2023-05-12T13:06:31.247Z,98727.50
2023-05-12T13:09:33.744Z,98716.41
2023-05-12T13:12:36.570Z,98709.69
2023-05-12T13:15:39.851Z,98701.72
2023-05-12T13:18:42.779Z,98711.53
2023-05-12T13:21:45.311Z,98725.72
2023-05-12T13:24:48.206Z,98710.53
2023-05-12T13:27:50.780Z,98723.06
2023-05-12T13:30:53.708Z,98717.44
2023-05-12T13:33:56.405Z,98712.87
2023-05-12T13:36:59.355Z,98718.59
2023-05-12T13:40:02.376Z,98717.59
2023-05-12T13:43:05.427Z,98722.16
2023-05-12T13:46:09.413Z,98720.37
2023-05-12T13:49:12.915Z,98725.19
2023-05-12T13:52:16.244Z,98723.19
2023-05-12T13:55:21.600Z,98699.81
2023-05-12T13:58:24.473Z,98727.69
2023-05-12T14:01:27.819Z,98724.44
2023-05-12T14:04:30.700Z,98728.81
2023-05-12T14:07:33.323Z,98727.41
2023-05-12T14:10:36.247Z,98723.84
2023-05-12T14:13:38.746Z,98728.56
2023-05-12T14:16:41.719Z,98726.53
2023-05-12T14:19:45.087Z,98732.06
2023-05-12T14:22:47.809Z,98735.25
2023-05-12T14:25:50.448Z,98727.75
2023-05-12T14:28:53.308Z,98729.69
2023-05-12T14:31:55.878Z,98738.88
2023-05-12T14:34:58.628Z,98739.09
2023-05-12T14:38:01.227Z,98743.53
2023-05-12T14:41:04.166Z,98748.88
2023-05-12T14:44:06.702Z,98743.53
2023-05-12T14:47:09.486Z,98741.19
2023-05-12T14:50:12.089Z,98745.59
2023-05-12T14:53:15.439Z,98740.12
2023-05-12T14:56:17.912Z,98740.84
2023-05-12T14:59:20.857Z,98744.31
2023-05-12T15:02:23.458Z,98737.22
2023-05-12T15:05:41.198Z,98737.41
2023-05-12T15:08:48.825Z,98741.25
2023-05-12T15:11:51.775Z,98748.34
2023-05-12T15:14:56.107Z,98754.34
2023-05-12T15:17:59.267Z,98754.59
2023-05-12T15:21:01.987Z,98757.47
2023-05-12T15:24:06.284Z,98759.09
2023-05-12T15:27:09.061Z,98756.91
2023-05-12T15:30:12.609Z,98767.75
2023-05-12T15:33:15.226Z,98766.28
2023-05-12T15:36:18.024Z,98767.81
2023-05-12T15:39:21.732Z,98762.62
2023-05-12T15:42:30.109Z,98767.88
2023-05-12T15:45:38.460Z,98769.34
2023-05-12T15:48:41.394Z,98757.63
2023-05-12T15:51:44.671Z,98754.88
2023-05-12T15:54:47.567Z,98754.94
2023-05-12T15:57:50.233Z,98732.78
2023-05-12T16:00:56.152Z,98757.34
2023-05-12T16:03:59.327Z,98750.91
2023-05-12T16:07:02.075Z,98755.34
2023-05-12T16:10:05.695Z,98753.44
2023-05-12T16:13:08.981Z,98754.19
2023-05-12T16:16:11.853Z,98749.69
2023-05-12T16:19:18.168Z,98758.72
2023-05-12T16:22:20.995Z,98744.03
2023-05-12T16:25:23.566Z,98758.91
2023-05-12T16:28:27.003Z,98761.41
2023-05-12T16:31:30.995Z,98767.66
2023-05-12T16:34:33.781Z,98761.50
2023-05-12T16:37:36.227Z,98764.34
2023-05-12T16:40:39.068Z,98770.50
2023-05-12T16:43:41.634Z,98772.72
2023-05-12T16:46:44.494Z,98767.81
2023-05-12T16:49:47.054Z,98774.06
2023-05-12T16:52:49.900Z,98777.62
2023-05-12T16:55:52.692Z,98785.91
2023-05-12T16:58:55.630Z,98777.91
2023-05-12T17:01:59.544Z,98783.28
2023-05-12T17:05:02.346Z,98781.47
2023-05-12T17:08:05.023Z,98778.91
2023-05-12T17:11:08.208Z,98785.44
2023-05-12T17:14:10.724Z,98785.47
2023-05-12T17:17:13.596Z,98792.56
2023-05-12T17:20:16.153Z,98792.56
2023-05-12T17:23:18.967Z,98800.00
2023-05-12T17:26:21.471Z,98794.09
2023-05-12T17:29:24.276Z,98796.41
2023-05-12T17:32:28.284Z,98798.66
2023-05-12T17:35:32.628Z,98806.72
2023-05-12T17:38:35.418Z,98803.44
2023-05-12T17:41:42.662Z,98812.37
2023-05-12T17:44:45.361Z,98774.84
2023-05-12T17:47:51.321Z,98820.66
2023-05-12T17:50:53.886Z,98820.81
2023-05-12T17:53:56.875Z,98825.38
2023-05-12T17:56:59.567Z,98823.62
2023-05-12T18:00:09.337Z,98809.72
2023-05-12T18:03:17.592Z,98822.06
2023-05-12T18:06:20.782Z,98822.94
2023-05-12T18:09:23.547Z,98822.19
2023-05-12T18:12:27.061Z,98818.72
2023-05-12T18:15:30.221Z,98831.47
2023-05-12T18:18:33.382Z,98827.94
2023-05-12T18:21:36.344Z,98832.56
2023-05-12T18:24:41.803Z,98828.69
2023-05-12T18:27:44.384Z,98818.22
2023-05-12T18:30:47.386Z,98829.59
2023-05-12T18:33:50.248Z,98802.47
2023-05-12T18:36:53.580Z,98828.03
2023-05-12T18:39:58.270Z,98837.94
2023-05-12T18:43:01.251Z,98834.25
2023-05-12T18:46:04.430Z,98828.31
2023-05-12T18:49:07.673Z,98829.66
2023-05-12T18:52:10.192Z,98830.09
2023-05-12T18:55:13.011Z,98833.19
2023-05-12T18:58:17.134Z,98838.62
2023-05-12T19:01:23.007Z,98818.63
2023-05-12T19:04:26.300Z,98834.19
2023-05-12T19:07:29.066Z,98844.16
2023-05-12T19:10:32.588Z,98844.22
2023-05-12T19:13:40.614Z,98842.44
2023-05-12T19:16:46.402Z,98848.28
2023-05-12T19:19:50.585Z,98847.25
2023-05-12T19:22:53.200Z,98848.22
2023-05-12T19:25:56.005Z,98854.47
2023-05-12T19:29:00.464Z,98864.50
2023-05-12T19:32:03.502Z,98860.91
2023-05-12T19:35:07.075Z,98839.91
2023-05-12T19:38:10.000Z,98865.63
2023-05-12T19:41:12.490Z,98866.50
2023-05-12T19:44:15.332Z,98865.66
2023-05-12T19:47:17.999Z,98873.53
2023-05-12T19:50:21.234Z,98867.41
2023-05-12T19:53:23.830Z,98870.00
2023-05-12T19:56:27.170Z,98867.38
2023-05-12T19:59:29.947Z,98871.91
2023-05-12T20:02:33.025Z,98870.19
2023-05-12T20:05:37.379Z,98867.56
2023-05-12T20:08:40.077Z,98870.31
2023-05-12T20:11:42.976Z,98863.19
2023-05-12T20:14:45.638Z,98865.19
2023-05-12T20:17:48.469Z,98878.38
2023-05-12T20:20:51.107Z,98871.13
2023-05-12T20:23:53.932Z,98868.28
2023-05-12T20:26:56.707Z,98871.09
2023-05-12T20:29:59.682Z,98876.25
2023-05-12T20:33:02.404Z,98872.66
2023-05-12T20:36:05.623Z,98874.31
2023-05-12T20:39:10.118Z,98871.63
2023-05-12T20:42:13.136Z,98868.06
2023-05-12T20:45:15.933Z,98869.97
2023-05-12T20:48:18.782Z,98868.16
2023-05-12T20:51:21.492Z,98868.06
2023-05-12T20:54:24.295Z,98866.19
2023-05-12T20:57:27.288Z,98863.59
2023-05-12T21:00:30.163Z,98867.28
2023-05-12T21:03:33.586Z,98871.88
2023-05-12T21:06:36.994Z,98874.56
2023-05-12T21:09:39.564Z,98870.22
2023-05-12T21:12:42.397Z,98876.56
2023-05-12T21:15:45.089Z,98877.38
2023-05-12T21:18:48.229Z,98879.16
2023-05-12T21:21:50.966Z,98847.41
2023-05-12T21:24:53.877Z,98875.03
2023-05-12T21:27:56.554Z,98875.78
2023-05-12T21:30:59.345Z,98868.75
2023-05-12T21:34:01.977Z,98871.38
2023-05-12T21:37:04.997Z,98873.25
2023-05-12T21:40:08.058Z,98868.75
2023-05-12T21:43:10.913Z,98879.66
2023-05-12T21:46:13.468Z,98874.06
2023-05-12T21:49:16.504Z,98874.25
2023-05-12T21:52:19.388Z,98870.84
2023-05-12T21:55:22.392Z,98867.97
2023-05-12T21:58:24.979Z,98880.81
2023-05-12T22:01:28.813Z,98876.22
2023-05-12T22:04:31.671Z,98884.34
2023-05-12T22:07:34.131Z,98882.34
2023-05-12T22:10:37.248Z,98878.72
2023-05-12T22:13:40.080Z,98875.19
2023-05-12T22:16:43.163Z,98883.38
2023-05-12T22:19:45.764Z,98874.56
2023-05-12T22:22:49.872Z,98881.69
2023-05-12T22:25:52.565Z,98873.75
2023-05-12T22:28:55.600Z,98880.03
2023-05-12T22:31:58.178Z,98878.38
2023-05-12T22:35:01.397Z,98878.38
2023-05-12T22:38:03.993Z,98877.47
2023-05-12T22:41:06.899Z,98858.88
2023-05-12T22:44:09.849Z,98872.91
2023-05-12T22:47:13.195Z,98870.41
2023-05-12T22:50:16.082Z,98870.22
2023-05-12T22:53:18.978Z,98868.50
2023-05-12T22:56:21.576Z,98852.06
2023-05-12T22:59:24.405Z,98872.19
2023-05-12T23:02:27.057Z,98865.84
2023-05-12T23:05:29.922Z,98873.84
2023-05-12T23:08:32.501Z,98874.63
2023-05-12T23:11:35.817Z,98869.31
2023-05-12T23:14:38.399Z,98871.06
2023-05-12T23:17:41.486Z,98864.03
2023-05-12T23:20:44.196Z,98864.16
2023-05-12T23:23:47.162Z,98865.72
2023-05-12T23:26:50.726Z,98864.06
2023-05-12T23:29:53.814Z,98848.75
2023-05-12T23:32:56.847Z,98829.50
2023-05-12T23:35:59.845Z,98831.16
2023-05-12T23:39:02.489Z,98829.53
2023-05-12T23:42:05.666Z,98847.00
2023-05-12T23:45:08.626Z,98847.06
2023-05-12T23:48:11.814Z,98838.12
2023-05-12T23:51:14.445Z,98844.50
2023-05-12T23:54:17.476Z,98841.03
2023-05-12T23:57:20.322Z,98839.91
